Time;durP1;ratioP1;P1;durP2;ratioP2;P2;SDS_P1;SDS_P2;PMS_P1;PMS_P2;Temp;Humidity;BMP_temperature;BMP_pressure;BME280_temperature;BME280_humidity;BME280_pressure;Samples;Min_cycle;Max_cycle;Signal;HPM_P1;HPM_P2
2022/05/26 09:00:48;;;;;;;;;;;;;;;20.21;49.25;97613.06;4221249;27;10417;-77
2022/05/26 09:02:55;;;;;;;;;;;;;;;20.45;49.00;97621.94;4204483;28;5793;-76
2022/05/26 09:05:01;;;;;;;;;;;;;;;20.63;49.08;97621.78;4213452;28;5716;-76
2022/05/26 09:14:26;;;;;;;;;;;;;;;21.13;48.86;97621.16;4205611;28;5841;-76
2022/05/26 09:16:33;;;;;;;;;;;;;;;21.19;48.50;97614.84;4214857;28;5696;-76
2022/05/26 09:18:38;;;;;;;;;;;;;;;21.26;48.62;97630.84;4211980;28;5902;-76
2022/05/26 09:20:43;;;;;;;;;;;;;;;21.31;48.43;97636.31;4208983;28;5738;-76
2022/05/26 09:22:47;;;;;;;;;;;;;;;21.35;48.72;97640.16;4211267;28;5688;-76
2022/05/26 09:24:50;;;;;;;;;;;;;;;21.42;48.50;97631.94;4212302;28;5745;-76
2022/05/26 09:26:56;;;;;;;;;;;;;;;21.46;48.13;97631.22;4213358;28;5696;-76
2022/05/26 09:29:10;;;;;;;;;;;;;;;21.49;48.14;97630.72;4209173;28;5699;-76
2022/05/26 09:31:27;;;;;;;;;;;;;;;21.50;48.29;97620.78;4211386;28;5681;-75
2022/05/26 09:33:33;;;;;;;;;;;;;;;21.54;48.30;97623.81;4208014;28;5779;-76
2022/05/26 09:35:36;;;;;;;;;;;;;;;21.58;48.24;97635.72;4212406;28;5744;-76
2022/05/26 09:37:40;;;;;;;;;;;;;;;21.60;48.14;97631.72;4211271;28;5828;-76
2022/05/26 09:39:43;;;;;;;;;;;;;;;21.66;48.07;97632.63;4204784;28;5795;-76
2022/05/26 09:41:49;;;;;;;;;;;;;;;21.71;48.14;97638.09;4209293;28;5263;-76
2022/05/26 09:43:56;;;;;;;;;;;;;;;21.73;47.96;97636.78;4211129;28;5795;-77
2022/05/26 09:46:09;;;;;;;;;;;;;;;21.75;47.65;97636.56;4209622;28;5795;-76
2022/05/26 09:48:16;;;;;;;;;;;;;;;21.75;47.40;97640.06;4209104;28;5730;-76
2022/05/26 09:50:45;;;;;;;;;;;;;;;21.76;47.56;97632.81;4208832;28;5807;-76
2022/05/26 09:52:49;;;;;;;;;;;;;;;21.77;47.26;97634.44;4211584;28;5927;-76
2022/05/26 09:55:07;;;;;;;;;;;;;;;21.80;47.35;97636.63;4211591;28;5787;-76
2022/05/26 09:57:19;;;;;;;;;;;;;;;21.84;47.43;97635.06;4210070;28;6492;-76
2022/05/26 09:59:25;;;;;;;;;;;;;;;21.87;47.57;97641.84;4209987;28;5775;-76
2022/05/26 10:01:41;;;;;;;;;;;;;;;21.89;47.30;97651.31;4200645;28;5791;-76
2022/05/26 10:03:57;;;;;;;;;;;;;;;21.91;47.19;97638.41;4183662;28;5953;-76
2022/05/26 10:06:22;;;;;;;;;;;;;;;21.92;46.87;97633.84;4189409;28;5809;-76
2022/05/26 10:08:34;;;;;;;;;;;;;;;21.94;47.03;97626.34;4189633;28;5887;-76
2022/05/26 10:10:43;;;;;;;;;;;;;;;21.94;46.55;97629.84;4182790;28;5848;-76
2022/05/26 10:12:54;;;;;;;;;;;;;;;21.95;46.41;97627.97;4198833;28;5890;-76
2022/05/26 10:15:10;;;;;;;;;;;;;;;21.96;46.45;97625.03;4200536;28;6529;-76
2022/05/26 10:17:21;;;;;;;;;;;;;;;21.97;46.35;97624.00;4195551;28;5799;-76
2022/05/26 10:19:40;;;;;;;;;;;;;;;21.99;46.07;97621.06;4192430;28;6397;-83
2022/05/26 10:21:56;;;;;;;;;;;;;;;22.00;46.10;97620.81;4199751;28;5800;-75
2022/05/26 10:24:22;;;;;;;;;;;;;;;22.05;45.61;97628.13;4196471;28;5897;-75
2022/05/26 10:26:32;;;;;;;;;;;;;;;22.09;45.75;97621.25;4195511;28;5711;-75
2022/05/26 10:28:59;;;;;;;;;;;;;;;22.13;45.77;97625.06;4196072;28;6611;-75
2022/05/26 10:31:11;;;;;;;;;;;;;;;22.16;45.75;97612.97;4197522;28;5947;-76
2022/05/26 10:33:28;;;;;;;;;;;;;;;22.19;45.37;97612.47;4189219;28;5820;-75
2022/05/26 10:35:39;;;;;;;;;;;;;;;22.23;45.17;97616.31;4189569;28;5863;-75
2022/05/26 10:37:58;;;;;;;;;;;;;;;22.25;45.48;97612.31;4199250;28;5842;-75
2022/05/26 10:40:16;;;;;;;;;;;;;;;22.28;45.12;97614.50;4199603;28;5811;-75
2022/05/26 10:42:26;;;;;;;;;;;;;;;22.31;44.90;97608.63;4200313;28;6484;-76
2022/05/26 10:44:34;;;;;;;;;;;;;;;22.35;44.93;97619.72;4197990;28;5791;-75
2022/05/26 10:47:01;;;;;;;;;;;;;;;22.40;44.76;97611.69;4197951;28;5823;-75
2022/05/26 10:49:11;;;;;;;;;;;;;;;22.44;44.70;97610.16;4197160;28;6543;-76
2022/05/26 10:51:19;;;;;;;;;;;;;;;22.48;44.57;97607.78;4197159;28;5974;-75
2022/05/26 10:53:31;;;;;;;;;;;;;;;22.49;44.96;97620.97;4195412;28;5863;-76
2022/05/26 10:55:41;;;;;;;;;;;;;;;22.48;44.79;97611.28;4198583;28;5827;-75
2022/05/26 10:57:49;;;;;;;;;;;;;;;22.49;44.51;97614.78;4198717;28;6377;-77
2022/05/26 11:00:01;;;;;;;;;;;;;;;22.51;44.80;97616.16;4198309;28;5791;-76
2022/05/26 11:02:12;;;;;;;;;;;;;;;22.53;44.44;97611.34;4196382;28;5904;-76
2022/05/26 11:04:24;;;;;;;;;;;;;;;22.57;44.76;97609.78;4195654;28;5911;-76
2022/05/26 11:06:31;;;;;;;;;;;;;;;22.58;44.71;97607.91;4197611;28;5799;-76
2022/05/26 11:08:41;;;;;;;;;;;;;;;22.59;44.38;97613.03;4198850;28;5803;-76
2022/05/26 11:10:48;;;;;;;;;;;;;;;22.61;44.12;97602.81;4196623;28;5787;-77
2022/05/26 11:13:03;;;;;;;;;;;;;;;22.60;44.52;97598.50;4192654;28;6781;-72
2022/05/26 11:17:44;;;;;;;;;;;;;;;22.60;44.16;97603.06;4198126;28;5792;-77
2022/05/26 11:19:51;;;;;;;;;;;;;;;22.60;44.14;97598.50;4196451;28;7722;-76
2022/05/26 11:21:54;;;;;;;;;;;;;;;22.62;43.92;97596.38;4196687;28;5875;-76
2022/05/26 11:23:59;;;;;;;;;;;;;;;22.63;43.94;97591.78;4210160;28;5817;-77
2022/05/26 11:26:06;;;;;;;;;;;;;;;22.63;43.88;97589.91;4198245;28;5904;-78
2022/05/26 11:28:14;;;;;;;;;;;;;;;22.65;43.81;97587.81;4200129;28;5807;-76
2022/05/26 11:37:56;;;;;;;;;;;;;;;22.75;43.75;97580.88;4198959;28;5827;-76
2022/05/26 11:40:06;;;;;;;;;;;;;;;22.78;43.78;97586.59;4193151;28;5721;-79
2022/05/26 11:42:28;;;;;;;;;;;;;;;22.80;43.45;97586.34;4198121;28;5841;-76
2022/05/26 11:44:37;;;;;;;;;;;;;;;22.82;43.38;97584.22;4196662;28;5830;-77
2022/05/26 11:46:50;;;;;;;;;;;;;;;22.84;43.86;97579.41;4200230;28;5812;-77
2022/05/26 11:48:53;;;;;;;;;;;;;;;22.85;43.46;97567.56;4197266;28;5772;-76
2022/05/26 11:51:00;;;;;;;;;;;;;;;22.88;43.50;97567.06;4197213;28;5720;-76
2022/05/26 11:53:12;;;;;;;;;;;;;;;22.90;43.58;97567.63;4194752;28;5744;-77
2022/05/26 11:55:20;;;;;;;;;;;;;;;22.92;43.53;97576.25;4201456;28;5671;-77
2022/05/26 11:57:35;;;;;;;;;;;;;;;22.92;43.45;97562.78;4191225;28;5714;-77
2022/05/26 11:59:47;;;;;;;;;;;;;;;22.94;43.17;97560.66;4197031;28;5712;-77
2022/05/26 12:02:16;;;;;;;;;;;;;;;22.97;43.07;97554.75;4200197;28;5688;-77
2022/05/26 12:04:28;;;;;;;;;;;;;;;22.99;43.41;97565.25;4199433;28;5747;-78
2022/05/26 12:06:34;;;;;;;;;;;;;;;23.00;42.99;97565.03;4200691;28;5689;-77
2022/05/26 12:08:41;;;;;;;;;;;;;;;23.01;42.97;97550.47;4195815;28;5831;-77
2022/05/26 12:10:54;;;;;;;;;;;;;;;23.04;42.95;97552.66;4199341;28;5756;-77
2022/05/26 12:13:29;;;;;;;;;;;;;;;23.07;42.87;97549.44;4192320;28;5816;-76
2022/05/26 12:15:33;;;;;;;;;;;;;;;23.09;42.70;97547.31;4191071;28;5701;-74
2022/05/26 12:17:40;;;;;;;;;;;;;;;23.10;43.03;97551.63;4187602;28;5700;-74
2022/05/26 12:19:45;;;;;;;;;;;;;;;23.11;42.63;97549.78;4195365;28;5772;-74
2022/05/26 12:22:14;;;;;;;;;;;;;;;23.09;42.72;97541.91;4196976;28;5852;-74
2022/05/26 12:24:57;;;;;;;;;;;;;;;23.12;42.82;97541.44;4198469;28;5764;-74
2022/05/26 12:27:03;;;;;;;;;;;;;;;23.12;42.60;97536.03;4195975;28;5827;-74
2022/05/26 12:29:45;;;;;;;;;;;;;;;23.13;42.65;97526.88;4199716;28;5713;-74
2022/05/26 12:32:08;;;;;;;;;;;;;;;23.11;42.39;97534.41;4199948;28;5840;-74
2022/05/26 12:34:24;;;;;;;;;;;;;;;23.10;42.26;97532.75;4194816;28;5839;-73
2022/05/26 12:36:39;;;;;;;;;;;;;;;23.11;42.64;97528.19;4197824;28;5787;-73
2022/05/26 12:38:54;;;;;;;;;;;;;;;23.12;42.48;97530.63;4212938;28;5550;-87
2022/05/26 12:41:04;;;;;;;;;;;;;;;23.15;42.66;97532.00;4213957;28;5739;-87
2022/05/26 12:43:33;;;;;;;;;;;;;;;23.19;42.83;97530.41;4210998;28;5789;-86
2022/05/26 12:45:45;;;;;;;;;;;;;;;23.21;42.74;97531.78;4196611;28;5725;-86
2022/05/26 12:48:22;;;;;;;;;;;;;;;23.24;42.83;97525.91;4201127;28;5697;-85
2022/05/26 12:50:26;;;;;;;;;;;;;;;23.26;42.52;97522.13;4211793;28;5824;-87
2022/05/26 12:52:34;;;;;;;;;;;;;;;23.28;42.44;97518.09;4214909;28;5551;-87
2022/05/26 12:54:45;;;;;;;;;;;;;;;23.29;42.91;97519.72;4214106;28;5692;-87
2022/05/26 12:56:52;;;;;;;;;;;;;;;;;;4217517;28;5519;-88
2022/05/26 12:58:58;;;;;;;;;;;;;;;23.34;42.59;97516.28;4217651;28;5760;-85
2022/05/26 13:01:04;;;;;;;;;;;;;;;23.36;42.80;97514.13;4213144;28;5685;-86
2022/05/26 13:03:09;;;;;;;;;;;;;;;23.38;42.30;97507.38;4201335;28;5700;-86
2022/05/26 13:05:14;;;;;;;;;;;;;;;23.40;42.51;97505.25;4203066;28;5704;-77
2022/05/26 13:07:19;;;;;;;;;;;;;;;23.42;42.26;97505.78;4193415;28;5791;-77
2022/05/26 13:09:25;;;;;;;;;;;;;;;23.44;42.41;97505.53;4200421;28;5733;-76
2022/05/26 13:11:32;;;;;;;;;;;;;;;23.44;42.15;97494.72;4201671;28;5769;-78
2022/05/26 13:13:41;;;;;;;;;;;;;;;23.44;42.48;97489.34;4199232;28;5883;-77
2022/05/26 13:15:46;;;;;;;;;;;;;;;23.44;42.09;97489.34;4199939;28;5928;-78
2022/05/26 13:17:49;;;;;;;;;;;;;;;23.46;42.19;97495.31;4189198;28;5726;-79
2022/05/26 13:19:55;;;;;;;;;;;;;;;23.48;42.44;97495.88;4188030;28;5704;-78
2022/05/26 13:21:59;;;;;;;;;;;;;;;23.50;42.10;97499.13;4197785;28;5681;-79
2022/05/26 13:24:02;;;;;;;;;;;;;;;23.53;41.81;97498.59;4189304;28;5705;-78
2022/05/26 13:26:06;;;;;;;;;;;;;;;23.52;42.15;97491.56;4194231;28;6411;-78
2022/05/26 13:28:10;;;;;;;;;;;;;;;23.54;41.75;97494.81;4190189;28;5828;-79
2022/05/26 13:35:18;;;;;;;;;;;;;;;23.57;41.36;97480.81;4148096;28;5851;-78
2022/05/26 13:37:23;;;;;;;;;;;;;;;23.59;41.74;97492.19;4160006;28;5918;-78
2022/05/26 13:39:27;;;;;;;;;;;;;;;23.60;41.28;97483.03;4161809;28;5835;-77
2022/05/26 13:41:30;;;;;;;;;;;;;;;23.60;41.33;97483.03;4164936;28;5326;-78
2022/05/26 13:43:36;;;;;;;;;;;;;;;23.58;41.11;97479.78;4162889;28;5834;-78
2022/05/26 13:45:43;;;;;;;;;;;;;;;23.59;40.93;97469.81;4167393;28;5759;-78
2022/05/26 13:47:48;;;;;;;;;;;;;;;23.58;41.32;97463.59;4167958;28;5883;-77
2022/05/26 13:50:10;;;;;;;;;;;;;;;23.59;41.16;97467.91;4168424;28;5766;-78
2022/05/26 13:52:17;;;;;;;;;;;;;;;23.62;40.85;97470.09;4161123;28;5954;-78
2022/05/26 13:54:38;;;;;;;;;;;;;;;23.66;41.13;97471.19;4161693;28;5810;-78
2022/05/26 13:56:46;;;;;;;;;;;;;;;23.68;40.64;97465.53;4166773;28;5842;-78
2022/05/26 13:58:50;;;;;;;;;;;;;;;23.68;40.67;97469.06;4164659;28;5827;-77
2022/05/26 14:01:00;;;;;;;;;;;;;;;23.70;40.65;97466.91;4148084;28;5816;-78
2022/05/26 14:03:08;;;;;;;;;;;;;;;23.70;40.38;97461.50;4146618;28;5925;-78
2022/05/26 14:05:19;;;;;;;;;;;;;;;23.71;40.57;97457.72;4146877;28;5935;-77
2022/05/26 14:07:31;;;;;;;;;;;;;;;23.73;40.34;97460.16;4162565;28;5786;-72
2022/05/26 14:09:35;;;;;;;;;;;;;;;23.76;40.45;97449.66;4162374;28;5791;-70
2022/05/26 14:11:41;;;;;;;;;;;;;;;23.78;40.37;97446.69;4190827;28;5803;-70
2022/05/26 14:13:46;;;;;;;;;;;;;;;23.80;40.49;97447.25;4213879;28;5683;-68
2022/05/26 14:15:52;;;;;;;;;;;;;;;23.80;40.51;97445.38;4195112;28;5130;-72
2022/05/26 14:17:57;;;;;;;;;;;;;;;23.81;40.21;97446.19;4196826;28;5845;-74
2022/05/26 14:20:05;;;;;;;;;;;;;;;23.81;40.26;97447.00;4193031;28;6855;-77
2022/05/26 14:22:08;;;;;;;;;;;;;;;23.80;40.41;97439.97;4195536;28;5692;-74
2022/05/26 14:24:25;;;;;;;;;;;;;;;23.81;40.12;97446.19;4199279;28;5919;-78
2022/05/26 14:26:37;;;;;;;;;;;;;;;23.81;40.03;97441.59;4201483;28;5747;-73
2022/05/26 14:28:40;;;;;;;;;;;;;;;23.83;40.14;97440.50;4195206;28;5806;-72
2022/05/26 14:30:51;;;;;;;;;;;;;;;23.86;40.35;97439.97;4196735;28;5865;-72
2022/05/26 14:32:54;;;;;;;;;;;;;;;23.89;39.94;97452.94;4194704;28;5677;-78
2022/05/26 14:34:59;;;;;;;;;;;;;;;23.89;39.81;97447.56;4198120;28;5803;-80
2022/05/26 14:37:04;;;;;;;;;;;;;;;23.89;39.71;97448.34;4192781;28;5801;-73
2022/05/26 14:39:07;;;;;;;;;;;;;;;23.91;39.95;97442.72;4197865;28;5696;-73
2022/05/26 14:41:10;;;;;;;;;;;;;;;23.93;39.58;97437.88;4202427;28;5894;-73
2022/05/26 14:43:17;;;;;;;;;;;;;;;23.92;39.22;97437.06;4201336;28;5760;-73
2022/05/26 14:45:20;;;;;;;;;;;;;;;23.93;39.20;97432.47;4202133;28;5701;-73
2022/05/26 14:47:23;;;;;;;;;;;;;;;23.96;39.05;97427.34;4201813;28;5686;-73
2022/05/26 14:49:42;;;;;;;;;;;;;;;;;;;;;
2022/05/26 14:51:55;;;;;;;;;;;;;;;24.04;38.99;97431.44;4165569;28;5976;-73
2022/05/26 14:56:26;;;;;;;;;;;;;;;24.09;38.49;97437.66;4198929;28;5697;-76
2022/05/26 14:58:29;;;;;;;;;;;;;;;24.11;38.58;97434.69;4198996;28;5847;-73
2022/05/26 15:00:37;;;;;;;;;;;;;;;24.14;38.79;97450.38;4197680;28;5950;-68
2022/05/26 15:02:41;;;;;;;;;;;;;;;24.17;38.27;97438.22;4198109;28;5883;-71
2022/05/26 15:04:44;;;;;;;;;;;;;;;24.20;38.50;97432.28;4196220;28;5808;-72
2022/05/26 15:06:48;;;;;;;;;;;;;;;24.21;38.07;97439.31;4198964;28;5815;-72
2022/05/26 15:08:51;;;;;;;;;;;;;;;24.23;37.99;97429.06;4198818;28;5898;-73
2022/05/26 15:10:56;;;;;;;;;;;;;;;24.24;38.07;97431.53;4199513;28;6473;-71
2022/05/26 15:12:59;;;;;;;;;;;;;;;24.27;38.03;97443.69;4202208;28;5701;-71
2022/05/26 15:15:02;;;;;;;;;;;;;;;24.29;37.81;97433.41;4202299;28;5767;-71
2022/05/26 15:17:09;;;;;;;;;;;;;;;24.30;38.10;97435.88;4201376;28;5796;-72
2022/05/26 15:19:16;;;;;;;;;;;;;;;24.34;37.67;97438.84;4201022;28;5677;-72
2022/05/26 15:21:19;;;;;;;;;;;;;;;24.36;38.24;97439.44;4198961;28;6561;-72
2022/05/26 15:23:22;;;;;;;;;;;;;;;24.38;37.75;97435.38;4199843;28;5322;-71
2022/05/26 15:25:25;;;;;;;;;;;;;;;24.41;37.83;97431.31;4200653;28;5811;-72
2022/05/26 15:27:31;;;;;;;;;;;;;;;24.42;37.98;97432.13;4199273;28;5717;-71
2022/05/26 15:29:35;;;;;;;;;;;;;;;24.40;37.70;97432.41;4201722;28;5703;-71
2022/05/26 15:31:40;;;;;;;;;;;;;;;24.39;37.55;97436.19;4202051;28;5748;-71
2022/05/26 15:33:43;;;;;;;;;;;;;;;24.39;37.43;97437.00;4188672;28;5856;-71
2022/05/26 15:35:46;;;;;;;;;;;;;;;24.39;37.38;97431.59;4200660;28;5701;-67
2022/05/26 15:37:50;;;;;;;;;;;;;;;24.42;38.06;97418.63;4201276;28;7682;-71
2022/05/26 15:39:54;;;;;;;;;;;;;;;24.42;37.85;97434.84;4193616;28;5849;-71
2022/05/26 15:41:56;;;;;;;;;;;;;;;24.38;37.87;97423.75;4194173;28;5712;-70
2022/05/26 15:44:01;;;;;;;;;;;;;;;24.37;37.85;97425.66;4200959;28;5103;-69
2022/05/26 15:46:08;;;;;;;;;;;;;;;24.38;37.62;97424.56;4197594;28;5912;-62
2022/05/26 15:48:13;;;;;;;;;;;;;;;24.41;37.24;97434.03;4201069;28;5787;-63
2022/05/26 15:50:19;;;;;;;;;;;;;;;24.43;37.27;97428.34;4198916;28;5795;-62
2022/05/26 15:52:22;;;;;;;;;;;;;;;24.44;37.31;97419.97;4201155;28;7766;-64
2022/05/26 15:54:27;;;;;;;;;;;;;;;24.45;37.53;97427.00;4196695;28;5743;-63
2022/05/26 15:56:31;;;;;;;;;;;;;;;24.45;37.38;97428.88;4192934;28;5693;-63
2022/05/26 15:58:35;;;;;;;;;;;;;;;24.44;37.17;97421.84;4192303;28;5696;-62
2022/05/26 16:00:39;;;;;;;;;;;;;;;24.45;37.54;97424.28;4196356;28;5820;-62
2022/05/26 16:02:42;;;;;;;;;;;;;;;24.46;37.35;97427.81;4196065;28;5693;-62
2022/05/26 16:04:45;;;;;;;;;;;;;;;24.48;37.63;97420.25;4196616;28;5848;-62
2022/05/26 16:06:49;;;;;;;;;;;;;;;24.47;37.31;97419.47;4194684;28;5954;-62
2022/05/26 16:08:53;;;;;;;;;;;;;;;24.47;37.03;97422.16;4198265;28;5895;-62
2022/05/26 16:10:56;;;;;;;;;;;;;;;24.46;37.18;97417.81;4197063;28;5688;-62
2022/05/26 16:12:59;;;;;;;;;;;;;;;24.44;37.59;97413.75;4200359;28;5693;-63
2022/05/26 16:15:02;;;;;;;;;;;;;;;24.44;37.12;97421.84;4203005;28;5716;-62
2022/05/26 16:17:06;;;;;;;;;;;;;;;24.44;37.07;97408.34;4197949;28;5693;-62
2022/05/26 16:19:12;;;;;;;;;;;;;;;24.43;37.08;97423.75;4198477;28;5744;-63
2022/05/26 16:21:15;;;;;;;;;;;;;;;24.43;37.47;97414.84;4189021;28;5717;-72
2022/05/26 16:23:21;;;;;;;;;;;;;;;24.44;36.97;97405.66;4198582;28;5783;-74
2022/05/26 16:25:25;;;;;;;;;;;;;;;24.46;37.38;97406.19;4196222;28;5779;-73
2022/05/26 16:27:29;;;;;;;;;;;;;;;24.47;37.25;97421.34;4196282;28;5193;-69
2022/05/26 16:29:32;;;;;;;;;;;;;;;24.45;36.91;97413.47;4199870;28;5696;-66
2022/05/26 16:31:35;;;;;;;;;;;;;;;24.45;36.87;97409.97;4196307;28;5681;-72
2022/05/26 16:33:39;;;;;;;;;;;;;;;24.44;37.33;97414.56;4202250;28;5692;-72
2022/05/26 16:38:06;;;;;;;;;;;;;;;24.43;37.04;97420.25;4197687;28;5689;-71
2022/05/26 16:40:10;;;;;;;;;;;;;;;24.44;37.10;97416.44;4199085;28;6544;-66
2022/05/26 16:42:13;;;;;;;;;;;;;;;24.46;36.82;97417.00;4201179;28;5776;-67
2022/05/26 16:44:17;;;;;;;;;;;;;;;24.44;36.97;97416.44;4198789;28;5693;-70
2022/05/26 16:46:21;;;;;;;;;;;;;;;24.44;37.18;97416.44;4199603;28;5873;-73
2022/05/26 16:48:26;;;;;;;;;;;;;;;24.38;37.17;97416.47;4198093;28;6520;-63
2022/05/26 16:50:33;;;;;;;;;;;;;;;24.38;36.57;97419.16;4197909;28;5792;-64
2022/05/26 16:52:36;;;;;;;;;;;;;;;24.41;36.84;97423.22;4195683;28;5804;-63
2022/05/26 16:54:41;;;;;;;;;;;;;;;24.41;37.18;97417.00;4198927;28;5696;-63
2022/05/26 16:56:44;;;;;;;;;;;;;;;24.41;36.88;97423.22;4197824;28;5717;-62
2022/05/26 16:58:47;;;;;;;;;;;;;;;24.43;37.05;97422.94;4199081;28;5705;-63
2022/05/26 17:00:50;;;;;;;;;;;;;;;24.41;36.75;97427.81;4196855;28;5783;-63
2022/05/26 17:02:53;;;;;;;;;;;;;;;24.39;36.59;97417.25;4194011;28;6236;-63
2022/05/26 17:04:56;;;;;;;;;;;;;;;24.41;36.95;97425.09;4196182;28;5815;-63
2022/05/26 17:07:01;;;;;;;;;;;;;;;24.38;36.92;97419.16;4199489;28;5701;-63
2022/05/26 17:09:11;;;;;;;;;;;;;;;24.36;37.09;97412.41;4197944;28;5820;-62
2022/05/26 17:11:14;;;;;;;;;;;;;;;24.37;36.74;97419.44;4199312;28;6002;-62
2022/05/26 17:22:42;;;;;;;;;;;;;;;24.28;36.89;97410.19;4195433;28;5717;-63
2022/05/26 17:24:45;;;;;;;;;;;;;;;24.30;37.17;97411.56;4198168;28;5764;-67
2022/05/26 17:26:48;;;;;;;;;;;;;;;24.33;36.73;97415.63;4201485;28;5768;-63
2022/05/26 17:28:50;;;;;;;;;;;;;;;24.32;36.82;97414.00;4202543;28;7701;-76
2022/05/26 17:30:54;;;;;;;;;;;;;;;24.32;36.95;97414.81;4201704;28;5705;-73
2022/05/26 17:32:57;;;;;;;;;;;;;;;24.33;36.71;97416.44;4199169;28;5693;-72
2022/05/26 17:35:00;;;;;;;;;;;;;;;24.34;37.15;97417.22;4199598;28;5887;-70
2022/05/26 17:37:05;;;;;;;;;;;;;;;24.34;37.35;97412.66;4198520;28;5697;-73
2022/05/26 17:39:15;;;;;;;;;;;;;;;24.35;37.05;97419.69;4202533;28;5859;-69
2022/05/26 17:41:34;;;;;;;;;;;;;;;24.36;37.05;97415.91;4195313;28;5704;-68
2022/05/26 17:43:37;;;;;;;;;;;;;;;24.35;37.06;97417.00;4192297;28;5910;-72
2022/05/26 17:45:42;;;;;;;;;;;;;;;24.36;36.97;97421.31;4200397;28;5732;-68
2022/05/26 17:47:45;;;;;;;;;;;;;;;24.35;37.06;97425.09;4199487;28;5705;-68
2022/05/26 17:49:48;;;;;;;;;;;;;;;24.37;36.82;97425.66;4198152;28;5704;-71
2022/05/26 17:51:54;;;;;;;;;;;;;;;24.35;37.18;97425.09;4193760;28;5776;-73
2022/05/26 17:53:57;;;;;;;;;;;;;;;24.33;37.39;97416.44;4200789;28;5831;-71
2022/05/26 17:56:01;;;;;;;;;;;;;;;24.33;37.53;97423.72;4198069;28;5697;-75
2022/05/26 17:58:06;;;;;;;;;;;;;;;24.31;37.09;97421.28;4188437;28;5733;-74
2022/05/26 18:02:33;;;;;;;;;;;;;;;24.32;37.18;97420.22;4198216;28;5700;-65
2022/05/26 18:04:36;;;;;;;;;;;;;;;24.34;37.54;97422.63;4203288;28;5704;-68
2022/05/26 18:06:39;;;;;;;;;;;;;;;24.33;37.72;97424.53;4201058;28;5924;-66
2022/05/26 18:08:43;;;;;;;;;;;;;;;24.32;37.31;97430.19;4195934;28;5772;-69
2022/05/26 18:10:47;;;;;;;;;;;;;;;24.30;37.74;97416.97;4201855;28;5771;-71
2022/05/26 18:12:51;;;;;;;;;;;;;;;24.31;37.74;97428.59;4200146;28;5083;-67
2022/05/26 18:14:54;;;;;;;;;;;;;;;24.30;37.43;97414.25;4193962;28;5861;-71
2022/05/26 18:16:59;;;;;;;;;;;;;;;24.30;37.31;97422.38;4200596;28;5773;-70
2022/05/26 18:19:05;;;;;;;;;;;;;;;24.27;37.68;97424.75;4200957;28;5864;-71
2022/05/26 18:21:11;;;;;;;;;;;;;;;24.21;37.78;97420.41;4200098;28;5700;-71
2022/05/26 18:23:19;;;;;;;;;;;;;;;24.15;38.07;97425.00;4203224;28;5704;-74
2022/05/26 18:25:23;;;;;;;;;;;;;;;24.09;37.76;97426.84;4201923;28;5748;-77
2022/05/26 18:27:26;;;;;;;;;;;;;;;24.04;37.90;97432.25;4201007;28;5724;-74
2022/05/26 18:29:30;;;;;;;;;;;;;;;24.01;38.31;97429.25;4202725;28;5696;-76
2022/05/26 18:31:37;;;;;;;;;;;;;;;23.99;37.92;97426.00;4199580;28;5876;-73
2022/05/26 18:33:41;;;;;;;;;;;;;;;23.98;38.01;97427.88;4198262;28;5838;-72
2022/05/26 18:35:44;;;;;;;;;;;;;;;23.98;37.84;97427.06;4198437;28;5180;-74
2022/05/26 18:37:47;;;;;;;;;;;;;;;23.94;38.33;97429.50;4205100;28;5831;-73
2022/05/26 18:39:50;;;;;;;;;;;;;;;23.87;38.25;97428.91;4190052;28;5824;-66
2022/05/26 18:41:53;;;;;;;;;;;;;;;23.81;38.12;97422.69;4199615;28;5721;-66
2022/05/26 18:43:56;;;;;;;;;;;;;;;23.77;38.25;97426.16;4200849;28;5693;-67
2022/05/26 18:46:02;;;;;;;;;;;;;;;23.75;38.10;97436.41;4187171;28;5710;-67
2022/05/26 18:48:07;;;;;;;;;;;;;;;23.72;38.26;97436.94;4188418;28;5696;-69
2022/05/26 18:50:13;;;;;;;;;;;;;;;23.67;38.71;97429.66;4199390;28;5710;-70
2022/05/26 18:52:16;;;;;;;;;;;;;;;23.62;38.56;97435.00;4191881;28;5095;-69
2022/05/26 18:54:19;;;;;;;;;;;;;;;23.57;38.58;97439.53;4198417;28;5688;-71
2022/05/26 18:56:22;;;;;;;;;;;;;;;23.53;38.87;97437.34;4201727;28;5733;-74
2022/05/26 18:58:25;;;;;;;;;;;;;;;23.50;39.11;97435.16;4199091;28;5847;-76
2022/05/26 19:00:29;;;;;;;;;;;;;;;23.50;38.63;97439.75;4194946;28;5894;-74
2022/05/26 19:02:38;;;;;;;;;;;;;;;23.45;39.15;97442.44;4195687;28;5755;-70
2022/05/26 19:05:04;;;;;;;;;;;;;;;23.43;38.74;97439.97;4194803;28;5958;-79
2022/05/26 19:07:12;;;;;;;;;;;;;;;23.39;39.02;97443.44;4194229;28;5704;-74
2022/05/26 19:09:15;;;;;;;;;;;;;;;23.35;38.93;97436.97;4200236;28;5828;-70
2022/05/26 19:13:45;;;;;;;;;;;;;;;23.27;39.24;97446.34;4198201;28;5783;-70
2022/05/26 19:15:55;;;;;;;;;;;;;;;23.23;39.43;97448.75;4202028;28;6382;-73
2022/05/26 19:18:09;;;;;;;;;;;;;;;23.23;39.23;97450.63;4200827;28;5728;-70
2022/05/26 19:20:12;;;;;;;;;;;;;;;23.24;39.37;97453.06;4198502;28;5712;-71
2022/05/26 19:22:16;;;;;;;;;;;;;;;23.23;39.48;97458.72;4188783;28;6406;-68
2022/05/26 19:24:19;;;;;;;;;;;;;;;23.24;39.40;97455.75;4197909;28;5689;-65
2022/05/26 19:26:22;;;;;;;;;;;;;;;23.24;39.30;97466.56;4200493;28;5894;-76
2022/05/26 19:28:29;;;;;;;;;;;;;;;23.21;39.21;97466.22;4199405;28;5685;-76
2022/05/26 19:30:33;;;;;;;;;;;;;;;23.14;39.47;97474.56;4201896;28;5879;-77
2022/05/26 19:32:38;;;;;;;;;;;;;;;23.10;39.35;97468.03;4202488;28;5841;-77
2022/05/26 19:34:42;;;;;;;;;;;;;;;23.08;39.57;97469.34;4201594;28;5781;-76
2022/05/26 19:36:45;;;;;;;;;;;;;;;23.08;39.84;97472.88;4201933;28;5764;-76
2022/05/26 19:38:48;;;;;;;;;;;;;;;23.05;39.45;97486.06;4200282;28;5709;-76
2022/05/26 19:40:52;;;;;;;;;;;;;;;23.04;39.82;97482.56;4193215;28;5692;-76
2022/05/26 19:42:56;;;;;;;;;;;;;;;22.97;39.45;97492.72;4200602;28;5692;-76
2022/05/26 19:44:59;;;;;;;;;;;;;;;22.93;39.63;97495.13;4202095;28;5718;-76
2022/05/26 19:47:02;;;;;;;;;;;;;;;22.89;39.65;97502.09;4200144;28;5700;-76
2022/05/26 19:49:06;;;;;;;;;;;;;;;22.87;40.01;97503.41;4196948;28;5776;-75
2022/05/26 19:51:11;;;;;;;;;;;;;;;22.85;40.00;97506.34;4194517;28;5710;-72
2022/05/26 19:53:14;;;;;;;;;;;;;;;22.87;39.70;97512.31;4195282;28;5745;-70
2022/05/26 19:55:17;;;;;;;;;;;;;;;22.86;40.10;97505.28;4197666;28;5717;-76
2022/05/26 19:57:30;;;;;;;;;;;;;;;22.85;39.94;97514.44;4201962;28;6508;-76
2022/05/26 19:59:33;;;;;;;;;;;;;;;22.86;39.89;97510.69;4196531;28;5759;-76
2022/05/26 20:01:37;;;;;;;;;;;;;;;22.88;39.79;97519.34;4200240;28;5700;-77
2022/05/26 20:03:41;;;;;;;;;;;;;;;22.90;39.99;97521.78;4204199;28;5816;-77
2022/05/26 20:05:44;;;;;;;;;;;;;;;22.90;40.17;97521.78;4202253;28;5752;-79
2022/05/26 20:07:50;;;;;;;;;;;;;;;22.86;40.16;97526.84;4198824;28;5735;-81
2022/05/26 20:09:53;;;;;;;;;;;;;;;22.85;40.27;97535.19;4202374;28;5929;-82
2022/05/26 20:11:56;;;;;;;;;;;;;;;22.86;40.07;97528.75;4198937;28;5692;-77
2022/05/26 20:13:59;;;;;;;;;;;;;;;22.86;40.21;97531.44;4201263;28;5713;-74
2022/05/26 20:16:02;;;;;;;;;;;;;;;22.83;39.95;97531.91;4196170;28;5778;-81
2022/05/26 20:18:06;;;;;;;;;;;;;;;22.81;40.21;97539.44;4203016;28;7092;-75
2022/05/26 20:20:11;;;;;;;;;;;;;;;22.80;40.01;97533.25;4200140;28;5696;-74
2022/05/26 20:22:14;;;;;;;;;;;;;;;22.82;39.92;97541.06;4201864;28;5744;-74
2022/05/26 20:24:18;;;;;;;;;;;;;;;22.82;39.94;97547.28;4201553;28;5681;-79
2022/05/26 20:26:21;;;;;;;;;;;;;;;22.81;40.36;97544.84;4201634;28;5717;-78
2022/05/26 20:30:45;;;;;;;;;;;;;;;22.82;40.06;97546.47;4149788;28;5752;-73
2022/05/26 20:32:48;;;;;;;;;;;;;;;22.80;40.44;97559.38;4149139;28;5786;-74
2022/05/26 20:34:51;;;;;;;;;;;;;;;22.79;40.05;97560.47;4148029;28;5839;-78
2022/05/26 20:36:54;;;;;;;;;;;;;;;22.78;40.58;97564.22;4150036;28;5802;-80
2022/05/26 20:38:58;;;;;;;;;;;;;;;22.77;40.37;97562.59;4155158;28;5867;-79
2022/05/26 20:41:02;;;;;;;;;;;;;;;22.78;40.14;97567.72;4151302;28;5850;-82
2022/05/26 20:43:05;;;;;;;;;;;;;;;22.78;40.48;97565.03;4150774;28;5758;-78
2022/05/26 20:45:09;;;;;;;;;;;;;;;22.75;40.51;97567.41;4150983;28;5859;-78
2022/05/26 20:47:15;;;;;;;;;;;;;;;22.75;40.63;97567.41;4149260;28;5934;-79
2022/05/26 20:49:33;;;;;;;;;;;;;;;22.74;40.32;97568.47;4149998;28;5751;-79
2022/05/26 20:51:36;;;;;;;;;;;;;;;22.74;40.44;97571.16;4150828;28;5759;-76
2022/05/26 20:53:39;;;;;;;;;;;;;;;22.71;40.88;97566.28;4151795;28;5846;-78
2022/05/26 20:55:44;;;;;;;;;;;;;;;22.67;40.97;97574.88;4150398;28;5764;-77